Time;durP1;ratioP1;P1;durP2;ratioP2;P2;SDS_P1;SDS_P2;PMS_P1;PMS_P2;Temp;Humidity;BMP_temperature;BMP_pressure;BME280_temperature;BME280_humidity;BME280_pressure;Samples;Min_cycle;Max_cycle;Signal;HPM_P1;HPM_P2
2023/08/27 00:02:17;;;;;;;1.92;0.70;;;15.20;94.70;;;;;;4883054;29;20064;-93
2023/08/27 00:05:04;;;;;;;1.40;0.50;;;15.20;94.70;;;;;;4896819;29;20064;-93
2023/08/27 00:07:42;;;;;;;1.48;0.60;;;15.20;94.60;;;;;;4884400;29;20490;-93
2023/08/27 00:10:44;;;;;;;;;;;;;;;;;;;;;
2023/08/27 00:13:16;;;;;;;0.90;0.43;;;15.30;94.60;;;;;;4893651;29;20045;-92
2023/08/27 00:15:59;;;;;;;1.35;0.60;;;15.40;94.50;;;;;;4883233;29;20052;-92
2023/08/27 00:18:45;;;;;;;2.58;0.63;;;15.40;94.50;;;;;;4901356;29;20044;-93
2023/08/27 00:21:30;;;;;;;1.85;0.50;;;15.50;94.50;;;;;;4888519;29;20088;-92
2023/08/27 00:24:35;;;;;;;;;;;;;;;;;;;;;
2023/08/27 00:27:05;;;;;;;1.00;0.60;;;15.50;94.40;;;;;;4900639;29;20044;-91
2023/08/27 00:30:04;;;;;;;2.10;0.65;;;15.50;94.40;;;;;;4878657;29;20048;-91
2023/08/27 00:32:53;;;;;;;1.20;0.60;;;15.50;94.50;;;;;;4887637;29;20100;-91
2023/08/27 00:35:42;;;;;;;1.33;0.57;;;15.50;94.50;;;;;;4892159;29;20046;-91
2023/08/27 00:38:45;;;;;;;1.00;0.50;;;15.50;94.50;;;;;;4861481;29;20049;-91
2023/08/27 00:41:51;;;;;;;1.48;0.70;;;15.50;94.50;;;;;;4892131;29;20040;-91
2023/08/27 00:45:14;;;;;;;0.73;0.43;;;15.40;94.60;;;;;;4897348;29;20143;-91
2023/08/27 00:48:26;;;;;;;0.80;0.50;;;15.40;94.70;;;;;;4871301;29;20044;-92
2023/08/27 00:51:26;;;;;;;1.10;0.43;;;15.30;94.70;;;;;;4878617;29;20452;-92
2023/08/27 00:54:25;;;;;;;0.93;0.35;;;15.30;94.70;;;;;;4882950;29;20049;-91
2023/08/27 00:57:08;;;;;;;1.13;0.47;;;15.30;94.70;;;;;;4879157;29;20127;-90
2023/08/27 01:03:47;;;;;;;1.08;0.40;;;15.20;94.70;;;;;;4897466;29;20064;-92
2023/08/27 01:06:59;;;;;;;1.05;0.40;;;15.20;94.80;;;;;;4847177;29;20058;-92
2023/08/27 01:10:22;;;;;;;0.95;0.30;;;15.20;94.70;;;;;;4882593;29;20056;-92
2023/08/27 01:13:39;;;;;;;0.88;0.50;;;15.20;94.70;;;;;;4910508;29;20359;-92
2023/08/27 01:16:48;;;;;;;0.82;0.40;;;15.20;94.60;;;;;;4876777;29;20045;-92
2023/08/27 01:19:22;;;;;;;1.55;0.40;;;15.20;94.70;;;;;;4874381;29;20499;-91
2023/08/27 01:22:22;;;;;;;1.55;0.40;;;15.20;94.70;;;;;;4874801;29;20131;-91
2023/08/27 01:25:02;;;;;;;;;;;;;;;;;;;;;
2023/08/27 01:28:23;;;;;;;1.27;0.50;;;15.20;94.80;;;;;;4901630;29;20112;-91
2023/08/27 01:31:20;;;;;;;0.80;0.40;;;15.20;94.60;;;;;;4868235;29;20201;-92
2023/08/27 01:34:02;;;;;;;;;;;;;;;;;;;;;
2023/08/27 01:37:11;;;;;;;1.05;0.50;;;15.20;94.70;;;;;;4815196;29;20066;-90
2023/08/27 01:40:06;;;;;;;0.85;0.40;;;15.20;94.70;;;;;;4883844;29;20392;-91
2023/08/27 01:43:15;;;;;;;1.00;0.30;;;15.20;94.70;;;;;;4886630;29;20047;-92
2023/08/27 01:45:57;;;;;;;1.35;0.40;;;15.20;94.70;;;;;;4899013;29;20051;-92
2023/08/27 01:48:39;;;;;;;0.60;0.30;;;15.10;94.70;;;;;;4895143;29;20082;-92
2023/08/27 01:51:22;;;;;;;;;;;;;;;;;;;;;
2023/08/27 01:54:09;;;;;;;1.15;0.40;;;15.10;94.80;;;;;;4892962;29;20080;-91
2023/08/27 01:57:27;;;;;;;1.77;0.32;;;15.10;94.80;;;;;;4891687;29;20075;-92
2023/08/27 02:00:32;;;;;;;1.20;0.45;;;15.20;94.70;;;;;;4880278;29;20060;-91
2023/08/27 02:03:14;;;;;;;2.10;0.60;;;15.20;94.60;;;;;;4883067;29;20058;-91
2023/08/27 02:05:47;;;;;;;1.60;0.50;;;15.20;94.60;;;;;;4880064;29;20056;-91
2023/08/27 02:08:40;;;;;;;1.10;0.60;;;15.20;94.60;;;;;;4890638;29;20044;-91
2023/08/27 02:11:23;;;;;;;0.40;0.30;;;15.20;94.60;;;;;;4871034;29;20045;-91
2023/08/27 02:13:57;;;;;;;0.60;0.30;;;15.20;94.60;;;;;;4883329;29;20546;-90
2023/08/27 02:16:44;;;;;;;1.45;0.47;;;15.20;94.60;;;;;;4876006;29;20044;-91
2023/08/27 02:19:32;;;;;;;1.17;0.30;;;15.20;94.70;;;;;;4886705;29;20048;-91
2023/08/27 02:22:02;;;;;;;0.73;0.40;;;15.20;94.70;;;;;;4889462;29;20451;-91
2023/08/27 02:24:42;;;;;;;1.65;0.52;;;15.20;94.70;;;;;;4891566;29;20112;-92
2023/08/27 02:27:58;;;;;;;0.65;0.40;;;15.10;94.70;;;;;;4870078;29;20053;-90
2023/08/27 02:30:37;;;;;;;1.05;0.40;;;15.10;94.70;;;;;;4902197;29;20044;-91
2023/08/27 02:33:12;;;;;;;1.27;0.60;;;15.00;94.80;;;;;;4876177;29;20414;-90
2023/08/27 02:35:55;;;;;;;0.90;0.35;;;15.00;94.90;;;;;;4878861;29;20044;-92
2023/08/27 02:38:44;;;;;;;0.70;0.45;;;15.00;94.90;;;;;;4890231;29;20081;-90
2023/08/27 02:45:46;;;;;;;1.00;0.40;;;14.90;94.90;;;;;;4855872;29;20411;-91
2023/08/27 02:48:32;;;;;;;2.70;0.50;;;14.80;95.00;;;;;;4850931;29;20050;-90
2023/08/27 02:51:22;;;;;;;0.77;0.38;;;14.80;95.00;;;;;;4854654;29;20064;-90
2023/08/27 02:53:56;;;;;;;0.75;0.40;;;14.70;95.00;;;;;;4842806;29;20057;-91
2023/08/27 02:57:18;;;;;;;1.27;0.30;;;14.80;95.00;;;;;;4799135;29;20510;-91
2023/08/27 02:59:56;;;;;;;0.63;0.30;;;14.80;95.00;;;;;;4833409;29;20085;-92
2023/08/27 03:02:34;;;;;;;0.65;0.40;;;14.80;95.00;;;;;;4874059;29;20109;-92
2023/08/27 03:05:35;;;;;;;2.33;0.35;;;14.80;95.00;;;;;;4854978;29;20042;-92
2023/08/27 03:08:14;;;;;;;0.60;0.30;;;14.90;94.90;;;;;;4862059;29;20169;-91
2023/08/27 03:10:48;;;;;;;1.00;0.47;;;15.00;94.90;;;;;;4894767;29;20118;-91
2023/08/27 03:13:23;;;;;;;;;;;15.00;94.90;;;;;;4897243;29;20047;-91
2023/08/27 03:15:57;;;;;;;1.27;0.57;;;15.00;94.90;;;;;;4877017;29;19930;-92
2023/08/27 03:18:53;;;;;;;1.15;0.50;;;14.90;94.80;;;;;;4888807;29;20053;-93
2023/08/27 03:21:34;;;;;;;2.15;0.50;;;15.00;94.80;;;;;;4886470;29;20183;-92
2023/08/27 03:24:12;;;;;;;0.65;0.35;;;15.00;94.80;;;;;;4871599;29;20503;-92
2023/08/27 03:26:43;;;;;;;1.00;0.50;;;15.00;94.80;;;;;;4885413;29;20044;-88
2023/08/27 03:29:38;;;;;;;0.70;0.50;;;15.00;94.80;;;;;;4874076;29;20071;-92
2023/08/27 03:32:20;;;;;;;1.05;0.32;;;15.10;94.80;;;;;;4896102;29;20055;-91
2023/08/27 03:35:32;;;;;;;1.20;0.43;;;15.10;94.80;;;;;;4907760;29;20128;-90
2023/08/27 03:38:15;;;;;;;0.82;0.40;;;15.10;94.80;;;;;;4890830;29;20056;-89
2023/08/27 03:41:05;;;;;;;1.23;0.55;;;15.10;94.80;;;;;;4873209;29;20079;-93
2023/08/27 03:43:35;;;;;;;1.00;0.50;;;15.20;94.70;;;;;;4902429;29;20446;-95
2023/08/27 03:46:06;;;;;;;2.10;0.38;;;15.20;94.70;;;;;;4897359;29;20125;-94
2023/08/27 03:49:06;;;;;;;0.98;0.40;;;15.30;94.70;;;;;;4884803;29;20056;-93
2023/08/27 03:51:53;;;;;;;1.15;0.50;;;15.30;94.60;;;;;;4887121;29;20080;-92
2023/08/27 03:54:51;;;;;;;3.38;0.52;;;15.20;94.60;;;;;;4896196;29;20040;-90
2023/08/27 03:58:05;;;;;;;1.00;0.57;;;15.10;94.70;;;;;;4883103;29;20770;-89
2023/08/27 04:04:56;;;;;;;;;;;;;;;;;;;;;
2023/08/27 04:08:41;;;;;;;;;;;;;;;;;;;;;
2023/08/27 04:35:59;;;;;;;;;;;;;;;;;;;;;
2023/08/27 05:38:46;;;;;;;0.95;0.30;;;14.50;95.70;;;;;;4888181;29;20111;-85
2023/08/27 05:42:32;;;;;;;0.57;0.20;;;14.60;95.70;;;;;;4865084;29;20088;-85
2023/08/27 06:03:25;;;;;;;0.90;0.30;;;14.70;95.70;;;;;;4796540;29;20062;-85
2023/08/27 06:11:42;;;;;;;;;;;;;;;;;;;;;
2023/08/27 06:14:18;;;;;;;0.57;0.22;;;15.00;95.60;;;;;;4811742;29;20063;-87
2023/08/27 06:18:08;;;;;;;1.20;0.30;;;15.10;95.60;;;;;;4762905;30;20646;-88
2023/08/27 06:22:07;;;;;;;1.08;0.35;;;15.30;95.40;;;;;;4721524;30;20199;-89
2023/08/27 06:30:11;;;;;;;1.52;0.50;;;15.20;95.40;;;;;;4718156;30;20056;-88
2023/08/27 06:32:47;;;;;;;0.57;0.30;;;15.20;95.50;;;;;;4703535;30;20061;-88
2023/08/27 06:35:48;;;;;;;1.88;0.57;;;15.20;95.50;;;;;;4694861;30;20115;-89
2023/08/27 06:38:26;;;;;;;1.67;0.70;;;15.40;95.50;;;;;;4708708;30;20143;-87
2023/08/27 06:55:38;;;;;;;;;;;;;;;;;;;;;
2023/08/27 07:08:04;;;;;;;1.17;0.50;;;16.20;94.80;;;;;;4760886;29;20074;-88
2023/08/27 07:11:31;;;;;;;2.13;0.50;;;16.30;94.80;;;;;;4771401;30;20047;-90
2023/08/27 07:19:20;;;;;;;1.45;0.73;;;16.50;94.80;;;;;;4766120;30;20087;-87
2023/08/27 07:22:22;;;;;;;1.23;0.50;;;16.70;94.50;;;;;;4757562;30;20066;-86
2023/08/27 07:40:33;;;;;;;1.38;0.77;;;16.80;94.50;;;;;;4842529;29;20110;-87
2023/08/27 07:48:54;;;;;;;2.10;1.15;;;17.00;94.40;;;;;;4725612;30;20075;-86
2023/08/27 07:51:36;;;;;;;3.58;1.50;;;16.90;94.50;;;;;;4729116;30;20114;-86
2023/08/27 07:54:57;;;;;;;2.45;1.15;;;16.90;94.50;;;;;;4759149;30;20503;-90
2023/08/27 07:57:38;;;;;;;2.85;1.00;;;17.10;94.40;;;;;;4750853;30;20059;-85
2023/08/27 08:04:38;;;;;;;5.60;1.40;;;17.30;94.20;;;;;;4783561;29;20608;-86
2023/08/27 08:08:22;;;;;;;3.15;1.40;;;17.40;94.20;;;;;;4776966;29;20056;-86
2023/08/27 08:16:23;;;;;;;3.70;1.67;;;17.80;93.70;;;;;;4807898;29;20033;-86
2023/08/27 08:23:52;;;;;;;2.10;0.90;;;17.60;93.70;;;;;;4844135;29;20030;-86
2023/08/27 08:27:06;;;;;;;;;;;;;;;;;;;;;
2023/08/27 08:30:59;;;;;;;3.10;0.95;;;17.90;93.80;;;;;;4895249;29;20052;-90
2023/08/27 08:33:52;;;;;;;2.40;1.20;;;18.20;93.50;;;;;;4857341;29;20041;-87
2023/08/27 09:00:13;;;;;;;;;;;;;;;;;;;;;
2023/08/27 09:21:38;;;;;;;2.55;1.30;;;18.90;91.90;;;;;;4783005;29;20566;-90
2023/08/27 10:17:03;;;;;;;2.70;0.75;;;21.50;84.80;;;;;;2657521;23;20035;-89
2023/08/27 10:24:02;;;;;;;0.85;0.50;;;22.00;82.50;;;;;;4856102;29;20064;-88
2023/08/27 10:31:40;;;;;;;1.50;0.60;;;21.70;81.80;;;;;;4895184;29;20471;-88
2023/08/27 10:38:26;;;;;;;0.68;0.32;;;20.80;82.60;;;;;;4875979;29;20037;-88
2023/08/27 10:40:54;;;;;;;0.40;0.30;;;20.30;79.80;;;;;;4851262;29;20057;-90
2023/08/27 10:43:49;;;;;;;0.70;0.20;;;19.80;80.80;;;;;;4856160;29;20049;-91
2023/08/27 10:46:27;;;;;;;0.50;0.28;;;19.20;79.70;;;;;;4856009;29;20057;-90
2023/08/27 10:50:05;;;;;;;;;;;;;;;;;;;;;
2023/08/27 10:53:13;;;;;;;0.32;0.20;;;18.50;80.60;;;;;;4888159;29;20049;-88
2023/08/27 10:56:05;;;;;;;;;;;;;;;;;;;;;
2023/08/27 11:04:06;;;;;;;0.32;0.15;;;19.20;78.90;;;;;;4863697;29;20076;-89
2023/08/27 11:06:46;;;;;;;0.68;0.30;;;19.00;78.50;;;;;;4839713;29;20474;-92
2023/08/27 11:09:34;;;;;;;0.17;0.13;;;18.80;78.10;;;;;;4902548;29;20060;-89
2023/08/27 11:12:03;;;;;;;0.73;0.30;;;19.20;78.30;;;;;;4877255;29;20055;-88
2023/08/27 11:15:12;;;;;;;0.52;0.30;;;19.30;78.40;;;;;;4885667;29;20060;-89
2023/08/27 11:18:26;;;;;;;0.93;0.30;;;19.40;78.20;;;;;;4883126;29;20064;-94
2023/08/27 11:21:26;;;;;;;1.38;0.40;;;19.60;78.00;;;;;;4867544;29;20097;-94
2023/08/27 11:24:28;;;;;;;0.47;0.25;;;19.40;77.20;;;;;;4866215;29;20565;-96
2023/08/27 11:28:34;;;;;;;0.38;0.20;;;19.10;77.60;;;;;;4818495;29;20075;-92
2023/08/27 11:32:00;;;;;;;1.60;0.40;;;18.70;77.60;;;;;;4760857;30;20051;-91
2023/08/27 11:34:43;;;;;;;2.28;0.40;;;18.00;78.90;;;;;;4754792;30;20054;-92
2023/08/27 11:41:18;;;;;;;3.05;0.80;;;17.30;80.80;;;;;;4736830;30;20052;-93
2023/08/27 11:43:58;;;;;;;1.55;0.60;;;16.00;87.10;;;;;;4746649;30;20056;-92
2023/08/27 11:46:25;;;;;;;2.08;0.80;;;15.10;90.20;;;;;;4752916;30;20063;-90
2023/08/27 11:48:54;;;;;;;1.58;0.52;;;14.60;91.30;;;;;;4791636;29;20050;-90
2023/08/27 11:51:22;;;;;;;1.65;0.55;;;14.20;91.90;;;;;;4819406;29;20055;-92
2023/08/27 11:53:56;;;;;;;1.00;0.32;;;14.00;92.30;;;;;;4819908;29;20144;-93
2023/08/27 11:56:28;;;;;;;1.50;0.50;;;14.00;92.40;;;;;;4843950;29;20052;-94
2023/08/27 11:59:00;;;;;;;1.27;0.30;;;14.10;92.30;;;;;;4875436;29;20091;-92
2023/08/27 12:01:28;;;;;;;1.00;0.30;;;14.30;92.20;;;;;;4875146;29;20056;-93
2023/08/27 12:03:58;;;;;;;0.95;0.40;;;14.50;92.10;;;;;;4874413;29;20139;-92
2023/08/27 12:06:28;;;;;;;0.80;0.40;;;14.70;92.00;;;;;;4867886;29;20061;-88
2023/08/27 12:08:56;;;;;;;1.35;0.38;;;14.80;92.10;;;;;;4849184;29;20056;-88
2023/08/27 12:11:27;;;;;;;1.20;0.43;;;14.80;92.20;;;;;;4866920;29;20053;-88
2023/08/27 12:14:00;;;;;;;0.57;0.30;;;14.90;92.20;;;;;;4856675;29;20048;-88
2023/08/27 12:16:42;;;;;;;3.50;0.50;;;15.00;92.20;;;;;;4869427;29;20116;-88
2023/08/27 12:19:10;;;;;;;0.38;0.30;;;15.20;92.20;;;;;;4864558;29;20105;-88
2023/08/27 12:21:53;;;;;;;1.92;0.50;;;15.30;92.20;;;;;;4863715;29;20092;-88
2023/08/27 12:24:28;;;;;;;0.73;0.40;;;15.50;92.10;;;;;;4864089;29;20101;-87
2023/08/27 12:27:17;;;;;;;2.40;0.70;;;15.70;92.20;;;;;;4863982;29;20057;-88
2023/08/27 12:34:43;;;;;;;1.63;0.70;;;15.80;92.20;;;;;;4851129;29;20053;-85
2023/08/27 12:37:27;;;;;;;3.10;0.60;;;15.90;92.40;;;;;;4864947;29;20125;-87
2023/08/27 12:39:55;;;;;;;1.23;0.50;;;16.00;92.60;;;;;;4872358;29;20104;-86
2023/08/27 12:42:28;;;;;;;1.27;0.52;;;16.00;92.70;;;;;;4869074;29;20132;-87
2023/08/27 12:44:58;;;;;;;2.15;0.82;;;16.20;92.70;;;;;;4864059;29;20141;-86
2023/08/27 12:48:15;;;;;;;1.23;0.70;;;16.40;92.60;;;;;;4863925;29;20496;-95
2023/08/27 12:51:01;;;;;;;0.90;0.50;;;16.50;92.40;;;;;;4869120;29;20073;-90
2023/08/27 12:53:34;;;;;;;0.80;0.40;;;16.70;92.30;;;;;;4849638;29;20049;-90
2023/08/27 12:56:08;;;;;;;1.00;0.60;;;16.80;92.20;;;;;;4866994;29;20049;-87
2023/08/27 12:59:48;;;;;;;;;;;;;;;;;;;;;
2023/08/27 13:02:37;;;;;;;0.93;0.43;;;16.90;92.00;;;;;;4874867;29;20053;-88
2023/08/27 13:05:25;;;;;;;1.30;0.50;;;16.90;92.10;;;;;;4875780;29;20053;-89
2023/08/27 13:08:13;;;;;;;0.90;0.40;;;17.10;92.00;;;;;;4849652;29;20861;-87
2023/08/27 13:11:18;;;;;;;1.13;0.60;;;17.10;92.00;;;;;;4852733;29;20041;-82
2023/08/27 13:17:48;;;;;;;0.70;0.30;;;17.00;91.80;;;;;;4871892;29;20104;-85
2023/08/27 13:20:17;;;;;;;0.95;0.30;;;17.10;91.80;;;;;;4872848;29;20046;-84
2023/08/27 13:22:47;;;;;;;0.80;0.30;;;17.30;91.80;;;;;;4868243;29;20045;-88
2023/08/27 13:25:17;;;;;;;0.55;0.30;;;17.40;91.50;;;;;;4874071;29;20060;-88
2023/08/27 13:28:03;;;;;;;0.35;0.20;;;17.60;91.40;;;;;;4833957;29;20088;-88
2023/08/27 13:30:53;;;;;;;0.25;0.15;;;17.60;91.10;;;;;;4871520;29;20117;-89
2023/08/27 13:38:16;;;;;;;;;;;;;;;;;;;;;
2023/08/27 13:41:50;;;;;;;0.98;0.20;;;17.50;90.90;;;;;;4892117;29;20059;-93
2023/08/27 13:44:38;;;;;;;0.38;0.10;;;17.50;90.80;;;;;;4878049;29;20120;-90
2023/08/27 13:47:46;;;;;;;0.73;0.45;;;17.50;90.90;;;;;;4876860;29;20085;-91
2023/08/27 13:51:21;;;;;;;;;;;;;;;;;;;;;
2023/08/27 13:59:45;;;;;;;0.52;0.13;;;17.60;90.60;;;;;;4889406;29;20045;-92
2023/08/27 14:03:07;;;;;;;0.47;0.10;;;17.70;90.50;;;;;;4864848;29;20155;-92
2023/08/27 14:09:33;;;;;;;;;;;;;;;;;;;;;
2023/08/27 14:12:47;;;;;;;;;;;;;;;;;;;;;
2023/08/27 14:15:56;;;;;;;;;;;;;;;;;;;;;
2023/08/27 14:18:45;;;;;;;0.40;0.20;;;17.90;88.30;;;;;;4879718;29;20092;-94
2023/08/27 14:27:00;;;;;;;0.95;0.30;;;18.20;88.00;;;;;;4847792;29;20077;-95
2023/08/27 14:48:35;;;;;;;;;;;;;;;;;;;;;
2023/08/27 15:05:30;;;;;;;;;;;;;;;;;;;;;
2023/08/27 15:31:36;;;;;;;2.97;0.98;;;19.30;86.70;;;;;;4882415;29;20162;-90
2023/08/27 15:34:36;;;;;;;1.88;1.00;;;20.50;84.70;;;;;;4851234;29;20049;-86
2023/08/27 15:37:18;;;;;;;2.90;0.95;;;21.20;81.20;;;;;;4893902;29;20431;-92
2023/08/27 15:56:54;;;;;;;2.55;0.45;;;18.00;85.10;;;;;;4882738;29;20499;-93
2023/08/27 16:04:14;;;;;;;1.88;0.50;;;17.40;86.10;;;;;;4923050;29;20030;-93
2023/08/27 16:07:25;;;;;;;1.20;0.50;;;17.40;86.60;;;;;;4886047;29;20059;-92
2023/08/27 16:09:53;;;;;;;0.90;0.40;;;17.60;86.30;;;;;;4936710;29;20589;-93
2023/08/27 16:16:37;;;;;;;2.42;0.50;;;18.60;84.20;;;;;;4904691;29;20064;-93
2023/08/27 16:29:06;;;;;;;1.13;0.40;;;21.20;78.50;;;;;;4925088;28;20115;-95
2023/08/27 16:32:53;;;;;;;0.90;0.40;;;21.60;76.70;;;;;;4866671;29;20124;-93
2023/08/27 16:36:21;;;;;;;0.77;0.38;;;20.60;78.70;;;;;;4842802;29;20432;-96
2023/08/27 16:48:53;;;;;;;0.57;0.22;;;21.90;78.10;;;;;;812329;23;21642;-90
2023/08/27 16:51:51;;;;;;;;;;;;;;;;;;;;;
2023/08/27 16:54:38;;;;;;;0.65;0.30;;;23.20;75.70;;;;;;4845287;29;20049;-95
2023/08/27 17:03:17;;;;;;;;;;;;;;;;;;;;;
2023/08/27 18:13:31;;;;;;;1.42;0.63;;;16.80;88.80;;;;;;1682768;23;20334;-87
2023/08/27 18:30:59;;;;;;;2.20;0.80;;;16.30;90.20;;;;;;4885725;29;20041;-95
2023/08/27 18:37:28;;;;;;;2.53;0.70;;;16.20;90.50;;;;;;4845753;29;20046;-94
2023/08/27 18:40:01;;;;;;;1.40;0.60;;;16.10;90.70;;;;;;4847414;29;20057;-93
2023/08/27 19:05:45;;;;;;;0.90;0.65;;;15.80;91.30;;;;;;4867765;29;20043;-88
2023/08/27 19:08:56;;;;;;;2.85;0.70;;;15.60;91.50;;;;;;4845029;29;20065;-93
2023/08/27 19:12:10;;;;;;;2.53;0.90;;;15.60;91.50;;;;;;4847238;29;20054;-94
2023/08/27 19:14:44;;;;;;;1.13;0.63;;;15.60;91.60;;;;;;4839277;29;20511;-92
2023/08/27 19:17:32;;;;;;;1.27;0.73;;;15.50;91.70;;;;;;4904963;29;20115;-91
2023/08/27 19:20:24;;;;;;;2.22;0.60;;;15.50;91.80;;;;;;4879278;29;20092;-90
2023/08/27 19:23:31;;;;;;;1.02;0.45;;;15.40;91.90;;;;;;4907095;29;20559;-90
2023/08/27 19:35:41;;;;;;;;;;;;;;;;;;;;;
2023/08/27 19:56:38;;;;;;;1.35;0.60;;;14.70;92.90;;;;;;4838023;29;20038;-96
2023/08/27 20:00:01;;;;;;;1.95;0.95;;;14.70;93.00;;;;;;4824641;29;20062;-92
2023/08/27 20:02:30;;;;;;;1.95;1.00;;;14.70;93.10;;;;;;4880639;29;20052;-90
2023/08/27 20:05:08;;;;;;;2.28;0.73;;;14.70;93.20;;;;;;4897094;29;20100;-94
2023/08/27 20:07:50;;;;;;;2.05;0.98;;;14.70;93.20;;;;;;4888682;29;20059;-89
2023/08/27 20:10:20;;;;;;;2.00;1.13;;;14.70;93.30;;;;;;4883063;29;20068;-89
2023/08/27 20:12:48;;;;;;;2.60;1.10;;;14.70;93.30;;;;;;4887206;29;20098;-88
2023/08/27 20:15:18;;;;;;;2.22;1.40;;;14.70;93.30;;;;;;4908960;29;20079;-89
2023/08/27 20:17:55;;;;;;;3.40;1.77;;;14.60;93.30;;;;;;4901377;29;20044;-89
2023/08/27 20:20:25;;;;;;;2.38;1.35;;;14.60;93.40;;;;;;4908751;29;20077;-88
2023/08/27 20:22:55;;;;;;;;;;;14.60;93.40;;;;;;4898254;29;20049;-89
2023/08/27 20:25:22;;;;;;;1.73;0.95;;;14.60;93.40;;;;;;4883008;29;19954;-87
2023/08/27 20:27:52;;;;;;;1.70;1.00;;;14.50;93.40;;;;;;4882281;29;20060;-88
2023/08/27 20:30:24;;;;;;;2.03;1.00;;;14.50;93.40;;;;;;4911294;29;20468;-88
2023/08/27 20:32:51;;;;;;;1.45;0.85;;;14.60;93.50;;;;;;4891865;29;20399;-88
2023/08/27 20:35:19;;;;;;;3.53;1.08;;;14.50;93.50;;;;;;4903052;29;20049;-87
2023/08/27 20:37:56;;;;;;;1.73;0.90;;;14.50;93.60;;;;;;4912101;29;20052;-89
2023/08/27 20:41:02;;;;;;;1.77;0.80;;;14.50;93.60;;;;;;4885707;29;20052;-89
2023/08/27 20:43:33;;;;;;;1.90;0.80;;;14.50;93.60;;;;;;4907350;29;20048;-86
2023/08/27 20:46:18;;;;;;;;;;;;;;;;;;;;;
2023/08/27 20:48:56;;;;;;;2.38;0.93;;;14.50;93.70;;;;;;4900819;29;20052;-88
2023/08/27 20:51:24;;;;;;;2.13;0.90;;;14.50;93.70;;;;;;4887951;29;20103;-89
2023/08/27 20:53:54;;;;;;;2.08;1.15;;;14.50;93.70;;;;;;4890422;29;20124;-88
2023/08/27 20:56:49;;;;;;;1.75;1.05;;;14.50;93.80;;;;;;4911058;29;20048;-93
2023/08/27 20:59:26;;;;;;;2.40;1.13;;;14.50;93.80;;;;;;4915902;29;20052;-92
2023/08/27 21:05:58;;;;;;;2.38;1.17;;;14.50;93.80;;;;;;4805827;29;20062;-90
2023/08/27 21:09:25;;;;;;;;;;;;;;;;;;;;;
2023/08/27 21:16:25;;;;;;;2.30;1.42;;;14.70;93.70;;;;;;4798205;29;20057;-89
2023/08/27 21:22:47;;;;;;;3.83;2.70;;;14.90;93.50;;;;;;4770395;30;20134;-90
2023/08/27 21:25:30;;;;;;;3.15;2.03;;;15.00;93.50;;;;;;4783780;29;20051;-92
2023/08/27 21:28:20;;;;;;;3.13;1.95;;;15.00;93.40;;;;;;4767494;29;20379;-90
2023/08/27 21:30:51;;;;;;;3.72;1.83;;;15.00;93.40;;;;;;4764085;30;20130;-89
2023/08/27 21:33:19;;;;;;;2.65;1.70;;;15.00;93.50;;;;;;4793165;29;20051;-88
2023/08/27 21:35:51;;;;;;;3.38;2.00;;;14.90;93.60;;;;;;4825056;29;20051;-88
2023/08/27 21:38:27;;;;;;;3.55;2.13;;;14.80;93.70;;;;;;4836489;29;20054;-88
2023/08/27 21:41:27;;;;;;;3.97;2.58;;;14.80;93.80;;;;;;4812740;29;20062;-88
2023/08/27 21:44:05;;;;;;;3.22;2.03;;;14.70;93.90;;;;;;4804590;29;20047;-91
2023/08/27 21:47:25;;;;;;;2.80;1.42;;;14.70;94.00;;;;;;4807668;29;20055;-93
2023/08/27 21:49:56;;;;;;;3.45;1.70;;;14.60;94.00;;;;;;4797674;29;20070;-87
2023/08/27 21:52:24;;;;;;;2.65;1.45;;;14.60;94.20;;;;;;4822255;29;20125;-86
2023/08/27 21:54:51;;;;;;;3.00;1.40;;;14.50;94.20;;;;;;4827626;29;20053;-91
2023/08/27 21:57:29;;;;;;;2.72;1.45;;;14.50;94.20;;;;;;4845610;29;20181;-91
2023/08/27 22:00:29;;;;;;;2.67;1.30;;;14.50;94.30;;;;;;4903353;29;20125;-92
2023/08/27 22:03:29;;;;;;;2.45;1.50;;;14.50;94.30;;;;;;4901426;29;20056;-92
2023/08/27 22:06:46;;;;;;;;;;;;;;;;;;;;;
2023/08/27 22:09:29;;;;;;;5.05;2.72;;;14.40;94.40;;;;;;4892094;29;20056;-91
2023/08/27 22:12:24;;;;;;;;;;;;;;;;;;;;;
2023/08/27 22:15:20;;;;;;;3.45;1.83;;;14.50;94.40;;;;;;4900162;29;20053;-91
2023/08/27 22:18:14;;;;;;;;;;;;;;;;;;;;;
2023/08/27 22:21:49;;;;;;;2.78;1.50;;;14.50;94.30;;;;;;4911105;29;20143;-91
2023/08/27 22:24:31;;;;;;;3.60;1.60;;;14.50;94.30;;;;;;4894518;29;20057;-90
2023/08/27 22:27:19;;;;;;;4.25;2.13;;;14.50;94.30;;;;;;4900939;29;20051;-91
2023/08/27 22:30:07;;;;;;;4.78;1.42;;;14.50;94.40;;;;;;4910000;29;20060;-91
2023/08/27 22:33:02;;;;;;;3.10;1.55;;;14.50;94.40;;;;;;4881658;29;20055;-90
2023/08/27 22:36:05;;;;;;;1.98;1.27;;;14.50;94.40;;;;;;4884112;29;20053;-91
2023/08/27 22:38:48;;;;;;;3.55;1.60;;;14.40;94.40;;;;;;4899463;29;20499;-90
2023/08/27 22:41:34;;;;;;;4.30;2.58;;;14.50;94.60;;;;;;4891699;29;20142;-90
2023/08/27 22:44:19;;;;;;;;;;;;;;;;;;;;;
2023/08/27 22:47:03;;;;;;;3.15;2.03;;;14.50;94.50;;;;;;4884102;29;20053;-91
2023/08/27 22:49:53;;;;;;;4.57;2.50;;;14.50;94.50;;;;;;4884435;29;20048;-90
2023/08/27 22:52:27;;;;;;;3.13;1.83;;;14.50;94.50;;;;;;4897487;29;20051;-90
2023/08/27 22:55:13;;;;;;;2.80;1.60;;;14.50;94.50;;;;;;4902635;29;20044;-91
2023/08/27 22:57:49;;;;;;;2.78;1.63;;;14.50;94.80;;;;;;4889370;29;20451;-91
2023/08/27 23:00:28;;;;;;;3.42;2.00;;;14.50;94.70;;;;;;4884345;29;20104;-90
2023/08/27 23:03:07;;;;;;;3.30;2.00;;;14.50;94.70;;;;;;4905298;29;20068;-90
2023/08/27 23:05:48;;;;;;;3.80;2.38;;;14.50;94.70;;;;;;4891215;29;20491;-90
2023/08/27 23:08:54;;;;;;;4.40;1.58;;;14.50;94.80;;;;;;4904933;29;20406;-90
2023/08/27 23:11:33;;;;;;;2.88;1.92;;;14.40;94.70;;;;;;4890198;29;20714;-91
2023/08/27 23:14:08;;;;;;;3.20;1.80;;;14.40;94.80;;;;;;4890218;29;20053;-90
2023/08/27 23:16:55;;;;;;;2.65;1.40;;;14.40;94.80;;;;;;4902326;29;20068;-89
2023/08/27 23:19:34;;;;;;;4.43;2.20;;;14.30;94.90;;;;;;4902950;29;20418;-91
2023/08/27 23:22:10;;;;;;;2.72;1.75;;;14.30;95.00;;;;;;4889157;29;20063;-91
2023/08/27 23:24:38;;;;;;;3.00;1.40;;;14.30;95.00;;;;;;4875864;29;20410;-90
2023/08/27 23:27:13;;;;;;;2.83;1.80;;;14.30;95.00;;;;;;4890036;29;20076;-90
2023/08/27 23:30:00;;;;;;;2.67;1.35;;;14.20;95.00;;;;;;4883273;29;20068;-91
2023/08/27 23:32:40;;;;;;;2.35;1.13;;;14.20;95.10;;;;;;4885438;29;20115;-91
2023/08/27 23:35:13;;;;;;;1.77;0.93;;;14.10;95.10;;;;;;4898331;29;20044;-91
2023/08/27 23:37:56;;;;;;;2.97;1.27;;;14.10;95.20;;;;;;4879472;29;20380;-90
2023/08/27 23:40:29;;;;;;;2.05;1.20;;;14.10;95.30;;;;;;4899056;29;20052;-91
2023/08/27 23:43:26;;;;;;;3.13;1.42;;;14.00;95.30;;;;;;4901270;29;20063;-91
2023/08/27 23:46:14;;;;;;;2.22;1.17;;;14.00;95.30;;;;;;4909704;29;20067;-91
2023/08/27 23:48:47;;;;;;;3.35;1.40;;;13.90;95.40;;;;;;4896453;29;20048;-90
2023/08/27 23:51:20;;;;;;;2.58;1.00;;;13.90;95.50;;;;;;4903218;29;20045;-90
2023/08/27 23:53:51;;;;;;;2.00;0.95;;;13.90;95.50;;;;;;4898852;29;20048;-90
2023/08/27 23:56:24;;;;;;;2.22;0.95;;;13.90;95.50;;;;;;4913538;29;20040;-91
2023/08/27 23:59:21;;;;;;;2.15;1.10;;;13.90;95.50;;;;;;4912091;29;20147;-90
